Time;durP1;ratioP1;P1;durP2;ratioP2;P2;SDS_P1;SDS_P2;PMS_P1;PMS_P2;Temp;Humidity;BMP_temperature;BMP_pressure;BME280_temperature;BME280_humidity;BME280_pressure;Samples;Min_cycle;Max_cycle;Signal;HPM_P1;HPM_P2
2022/10/06 00:00:28;;;;;;;;;;;;;;;;;;5032674;28;1966;-72
2022/10/06 00:02:55;;;;;;;;;;;;;;;;;;5032368;28;1086;-72
2022/10/06 00:05:21;;;;;;;;;;;;;;;;;;5032722;28;858;-72
2022/10/06 00:07:47;;;;;;;;;;;;;;;;;;5032742;28;1079;-72
2022/10/06 00:10:14;;;;;;;;;;;;;;;;;;5032867;28;1336;-72
2022/10/06 00:12:41;;;;;;;;;;;;;;;;;;5032507;28;1030;-72
2022/10/06 00:15:08;;;;;;;;;;;;;;;;;;5032526;28;775;-74
2022/10/06 00:17:34;;;;;;;;;;;;;;;;;;5047923;28;1409;-72
2022/10/06 00:20:00;;;;;;;;;;;;;;;;;;5032372;28;1317;-72
2022/10/06 00:22:31;;;;;;;;;;;;;;;;;;5032198;28;1922;-72
2022/10/06 00:24:57;;;;;;;;;;;;;;;;;;5032355;28;870;-72
2022/10/06 00:27:25;;;;;;;;;;;;;;;;;;5032233;28;1084;-72
2022/10/06 00:29:51;;;;;;;;;;;;;;;;;;5030818;28;1410;-72
2022/10/06 00:32:17;;;;;;;;;;;;;;;;;;5047519;28;1255;-73
2022/10/06 00:34:44;;;;;;;;;;;;;;;;;;5030777;28;1408;-72
2022/10/06 00:37:10;;;;;;;;;;;;;;;;;;5032262;28;1128;-72
2022/10/06 00:39:36;;;;;;;;;;;;;;;;;;5047689;28;1333;-72
2022/10/06 00:42:02;;;;;;;;;;;;;;;;;;5031839;28;1935;-72
2022/10/06 00:44:30;;;;;;;;;;;;;;;;;;5047518;28;1174;-72
2022/10/06 00:46:56;;;;;;;;;;;;;;;;;;5047267;28;1159;-72
2022/10/06 00:49:23;;;;;;;;;;;;;;;;;;5047278;28;1124;-73
2022/10/06 00:51:51;;;;;;;;;;;;;;;;;;5031368;28;1286;-73
2022/10/06 00:54:17;;;;;;;;;;;;;;;;;;5030747;28;900;-73
2022/10/06 00:56:43;;;;;;;;;;;;;;;;;;5031853;28;862;-72
2022/10/06 00:59:10;;;;;;;;;;;;;;;;;;5047155;28;1112;-72
2022/10/06 01:01:38;;;;;;;;;;;;;;;;;;5046669;28;1981;-73
2022/10/06 01:04:05;;;;;;;;;;;;;;;;;;5046901;28;931;-72
2022/10/06 01:06:40;;;;;;;;;;;;;;;;;;5030645;28;1291;-72
2022/10/06 01:09:06;;;;;;;;;;;;;;;;;;5031540;28;1139;-72
2022/10/06 01:11:33;;;;;;;;;;;;;;;;;;5046631;28;1406;-71
2022/10/06 01:14:00;;;;;;;;;;;;;;;;;;5030261;28;1383;-72
2022/10/06 01:16:28;;;;;;;;;;;;;;;;;;5030998;28;834;-73
2022/10/06 01:18:55;;;;;;;;;;;;;;;;;;5046749;28;1357;-73
2022/10/06 01:21:23;;;;;;;;;;;;;;;;;;5046322;28;2013;-71
2022/10/06 01:23:51;;;;;;;;;;;;;;;;;;5030120;28;1315;-72
2022/10/06 01:26:18;;;;;;;;;;;;;;;;;;5030435;28;1313;-73
2022/10/06 01:28:44;;;;;;;;;;;;;;;;;;5046654;28;1386;-73
2022/10/06 01:31:10;;;;;;;;;;;;;;;;;;5046743;28;1326;-72
2022/10/06 01:33:36;;;;;;;;;;;;;;;;;;5046570;28;1056;-72
2022/10/06 01:36:03;;;;;;;;;;;;;;;;;;5046583;28;1375;-72
2022/10/06 01:38:29;;;;;;;;;;;;;;;;;;5046768;28;1359;-72
2022/10/06 01:41:02;;;;;;;;;;;;;;;;;;5046289;28;1965;-72
2022/10/06 01:43:28;;;;;;;;;;;;;;;;;;5029811;28;1301;-72
2022/10/06 01:45:55;;;;;;;;;;;;;;;;;;5046353;28;1254;-72
2022/10/06 01:48:22;;;;;;;;;;;;;;;;;;5030065;28;1575;-72
2022/10/06 01:50:48;;;;;;;;;;;;;;;;;;5044291;28;1507;-71
2022/10/06 01:53:15;;;;;;;;;;;;;;;;;;5046220;28;1163;-72
2022/10/06 01:55:41;;;;;;;;;;;;;;;;;;5031113;28;779;-72
2022/10/06 01:58:08;;;;;;;;;;;;;;;;;;5046476;28;1308;-72
2022/10/06 02:00:35;;;;;;;;;;;;;;;;;;5046163;28;1803;-72
2022/10/06 02:03:02;;;;;;;;;;;;;;;;;;5044483;22;3561;-77
2022/10/06 02:05:28;;;;;;;;;;;;;;;;;;5012530;28;1066;-76
2022/10/06 02:07:55;;;;;;;;;;;;;;;;;;5013389;28;1347;-77
2022/10/06 02:10:21;;;;;;;;;;;;;;;;;;5013290;28;1363;-76
2022/10/06 02:12:49;;;;;;;;;;;;;;;;;;5017060;28;1329;-76
2022/10/06 02:15:19;;;;;;;;;;;;;;;;;;5050794;28;846;-76
2022/10/06 02:17:46;;;;;;;;;;;;;;;;;;5032890;28;1098;-76
2022/10/06 02:20:12;;;;;;;;;;;;;;;;;;5033238;28;1353;-76
2022/10/06 02:22:38;;;;;;;;;;;;;;;;;;5048345;28;1913;-75
2022/10/06 02:25:05;;;;;;;;;;;;;;;;;;5051450;28;1544;-76
2022/10/06 02:27:31;;;;;;;;;;;;;;;;;;5033178;28;1387;-75
2022/10/06 02:29:57;;;;;;;;;;;;;;;;;;5036469;28;1456;-75
2022/10/06 02:32:29;;;;;;;;;;;;;;;;;;5053767;28;1422;-76
2022/10/06 02:34:55;;;;;;;;;;;;;;;;;;5054112;28;1525;-76
2022/10/06 02:37:22;;;;;;;;;;;;;;;;;;5036545;28;1223;-76
2022/10/06 02:39:48;;;;;;;;;;;;;;;;;;5036279;28;1612;-76
2022/10/06 02:42:15;;;;;;;;;;;;;;;;;;5054084;28;1979;-76
2022/10/06 02:44:41;;;;;;;;;;;;;;;;;;5036117;28;1397;-76
2022/10/06 02:47:11;;;;;;;;;;;;;;;;;;5036203;28;1166;-75
2022/10/06 02:49:38;;;;;;;;;;;;;;;;;;5036280;28;1348;-76
2022/10/06 02:52:05;;;;;;;;;;;;;;;;;;5035952;28;1196;-76
2022/10/06 02:54:31;;;;;;;;;;;;;;;;;;5036453;28;1317;-76
2022/10/06 02:56:58;;;;;;;;;;;;;;;;;;5036007;28;1345;-77
2022/10/06 02:59:24;;;;;;;;;;;;;;;;;;5036168;28;1161;-76
2022/10/06 03:01:51;;;;;;;;;;;;;;;;;;5053635;28;1969;-76
2022/10/06 03:04:17;;;;;;;;;;;;;;;;;;5035882;28;1487;-76
2022/10/06 03:06:45;;;;;;;;;;;;;;;;;;5035931;28;1463;-76
2022/10/06 03:09:17;;;;;;;;;;;;;;;;;;5052649;28;1350;-76
2022/10/06 03:11:43;;;;;;;;;;;;;;;;;;5035614;28;1270;-75
2022/10/06 03:14:15;;;;;;;;;;;;;;;;;;5052628;28;1424;-77
2022/10/06 03:16:41;;;;;;;;;;;;;;;;;;5035600;28;1643;-76
2022/10/06 03:19:16;;;;;;;;;;;;;;;;;;5035829;28;1333;-76
2022/10/06 03:21:46;;;;;;;;;;;;;;;;;;5035211;28;1918;-76
2022/10/06 03:24:13;;;;;;;;;;;;;;;;;;5053506;28;1317;-77
2022/10/06 03:26:41;;;;;;;;;;;;;;;;;;5035605;28;1483;-76
2022/10/06 03:29:08;;;;;;;;;;;;;;;;;;5035569;28;1308;-76
2022/10/06 03:31:35;;;;;;;;;;;;;;;;;;5035420;28;1219;-76
2022/10/06 03:34:02;;;;;;;;;;;;;;;;;;5035270;28;1547;-76
2022/10/06 03:36:31;;;;;;;;;;;;;;;;;;5035376;28;1835;-76
2022/10/06 03:38:59;;;;;;;;;;;;;;;;;;5034771;28;1451;-76
2022/10/06 03:41:27;;;;;;;;;;;;;;;;;;5035527;28;1317;-76
2022/10/06 03:43:54;;;;;;;;;;;;;;;;;;5035020;28;1977;-76
2022/10/06 03:46:21;;;;;;;;;;;;;;;;;;5035343;28;1251;-76
2022/10/06 03:48:48;;;;;;;;;;;;;;;;;;5051861;28;1140;-76
2022/10/06 03:51:15;;;;;;;;;;;;;;;;;;5035096;28;1365;-75
2022/10/06 03:53:43;;;;;;;;;;;;;;;;;;5055091;28;1495;-75
2022/10/06 03:56:12;;;;;;;;;;;;;;;;;;5051757;28;1190;-75
2022/10/06 03:58:39;;;;;;;;;;;;;;;;;;5051616;28;1331;-75
2022/10/06 04:01:06;;;;;;;;;;;;;;;;;;5051581;28;1377;-75
2022/10/06 04:03:32;;;;;;;;;;;;;;;;;;5050894;28;1926;-75
2022/10/06 04:05:59;;;;;;;;;;;;;;;;;;5067984;28;1219;-75
2022/10/06 04:08:26;;;;;;;;;;;;;;;;;;5051427;28;1463;-75
2022/10/06 04:10:52;;;;;;;;;;;;;;;;;;5051296;28;1392;-75
2022/10/06 04:13:20;;;;;;;;;;;;;;;;;;5047345;28;1697;-75
2022/10/06 04:15:46;;;;;;;;;;;;;;;;;;5052442;28;1144;-75
2022/10/06 04:18:13;;;;;;;;;;;;;;;;;;5034852;28;1225;-75
2022/10/06 04:20:39;;;;;;;;;;;;;;;;;;5034477;28;1277;-75
2022/10/06 04:23:06;;;;;;;;;;;;;;;;;;5034272;28;1910;-76
2022/10/06 04:25:33;;;;;;;;;;;;;;;;;;5034539;28;1279;-75
2022/10/06 04:28:00;;;;;;;;;;;;;;;;;;5034291;28;1224;-76
2022/10/06 04:30:27;;;;;;;;;;;;;;;;;;5052378;28;826;-76
2022/10/06 04:32:54;;;;;;;;;;;;;;;;;;5033912;28;1424;-76
2022/10/06 04:35:20;;;;;;;;;;;;;;;;;;5034512;28;1295;-76
2022/10/06 04:37:46;;;;;;;;;;;;;;;;;;5034417;28;1424;-76
2022/10/06 04:40:13;;;;;;;;;;;;;;;;;;5034282;28;1376;-75
2022/10/06 04:42:40;;;;;;;;;;;;;;;;;;5054251;28;1975;-76
2022/10/06 04:45:11;;;;;;;;;;;;;;;;;;5044958;28;1423;-78
2022/10/06 04:47:40;;;;;;;;;;;;;;;;;;5034197;28;1345;-77
2022/10/06 04:50:08;;;;;;;;;;;;;;;;;;5049325;28;1621;-76
2022/10/06 04:52:34;;;;;;;;;;;;;;;;;;5030447;28;1647;-77
2022/10/06 04:55:00;;;;;;;;;;;;;;;;;;5032399;28;1262;-77
2022/10/06 04:57:27;;;;;;;;;;;;;;;;;;5029930;28;1365;-77
2022/10/06 05:02:38;;;;;;;;;;;;;;;;;;5029711;28;1922;-78
2022/10/06 05:05:07;;;;;;;;;;;;;;;;;;5065430;28;1335;-78
2022/10/06 05:07:33;;;;;;;;;;;;;;;;;;5053596;28;1403;-77
2022/10/06 05:09:59;;;;;;;;;;;;;;;;;;5038097;28;1346;-78
2022/10/06 05:12:29;;;;;;;;;;;;;;;;;;5032172;28;1386;-77
2022/10/06 05:14:55;;;;;;;;;;;;;;;;;;5031514;28;1415;-77
2022/10/06 05:17:21;;;;;;;;;;;;;;;;;;5049315;28;791;-78
2022/10/06 05:19:48;;;;;;;;;;;;;;;;;;5036663;28;1383;-77
2022/10/06 05:22:15;;;;;;;;;;;;;;;;;;5035222;28;1910;-77
2022/10/06 05:24:41;;;;;;;;;;;;;;;;;;5049849;28;1334;-77
2022/10/06 05:27:08;;;;;;;;;;;;;;;;;;5036286;28;1359;-77
2022/10/06 05:29:35;;;;;;;;;;;;;;;;;;5043949;28;1435;-77
2022/10/06 05:32:03;;;;;;;;;;;;;;;;;;5032162;28;1180;-77
2022/10/06 05:34:30;;;;;;;;;;;;;;;;;;5033627;28;1402;-77
2022/10/06 05:36:56;;;;;;;;;;;;;;;;;;5033477;28;1482;-77
2022/10/06 05:39:23;;;;;;;;;;;;;;;;;;5051446;28;1145;-77
2022/10/06 05:41:54;;;;;;;;;;;;;;;;;;5050272;28;1344;-77
2022/10/06 05:44:20;;;;;;;;;;;;;;;;;;5033982;28;1981;-77
2022/10/06 05:46:47;;;;;;;;;;;;;;;;;;5033450;28;1391;-76
2022/10/06 05:49:13;;;;;;;;;;;;;;;;;;5038400;28;1522;-77
2022/10/06 05:51:45;;;;;;;;;;;;;;;;;;5037663;28;1447;-78
2022/10/06 05:54:18;;;;;;;;;;;;;;;;;;5033518;28;1521;-77
2022/10/06 05:56:45;;;;;;;;;;;;;;;;;;5050236;28;1480;-77
2022/10/06 05:59:11;;;;;;;;;;;;;;;;;;5050590;28;1269;-77
2022/10/06 06:01:38;;;;;;;;;;;;;;;;;;5043355;28;1417;-77
2022/10/06 06:04:10;;;;;;;;;;;;;;;;;;5046033;28;1910;-78
2022/10/06 06:06:41;;;;;;;;;;;;;;;;;;5037747;28;1364;-78
2022/10/06 06:09:11;;;;;;;;;;;;;;;;;;5071862;28;1369;-77
2022/10/06 06:11:39;;;;;;;;;;;;;;;;;;5056763;28;1347;-77
2022/10/06 06:14:07;;;;;;;;;;;;;;;;;;5054359;28;1409;-77
2022/10/06 06:16:33;;;;;;;;;;;;;;;;;;5069991;28;1440;-77
2022/10/06 06:19:00;;;;;;;;;;;;;;;;;;5035849;28;1338;-77
2022/10/06 06:21:27;;;;;;;;;;;;;;;;;;5067694;28;1526;-77
2022/10/06 06:23:53;;;;;;;;;;;;;;;;;;5037220;28;1977;-78
2022/10/06 06:26:22;;;;;;;;;;;;;;;;;;5057695;28;1335;-78
2022/10/06 06:28:49;;;;;;;;;;;;;;;;;;5037294;28;1388;-77
2022/10/06 06:31:19;;;;;;;;;;;;;;;;;;5039097;28;1591;-78
2022/10/06 06:33:46;;;;;;;;;;;;;;;;;;5032961;28;1483;-78
2022/10/06 06:36:14;;;;;;;;;;;;;;;;;;5038368;28;1709;-79
2022/10/06 06:38:40;;;;;;;;;;;;;;;;;;5047190;28;1677;-79
2022/10/06 06:41:12;;;;;;;;;;;;;;;;;;5037536;28;1405;-79
2022/10/06 06:43:40;;;;;;;;;;;;;;;;;;5031271;28;1981;-78
2022/10/06 06:46:24;;;;;;;;;;;;;;;;;;5037617;28;1335;-78
2022/10/06 06:49:03;;;;;;;;;;;;;;;;;;5037551;28;1652;-79
2022/10/06 06:51:32;;;;;;;;;;;;;;;;;;5038736;28;1347;-78
2022/10/06 06:54:01;;;;;;;;;;;;;;;;;;5054336;28;1419;-78
2022/10/06 06:56:27;;;;;;;;;;;;;;;;;;5037892;28;1192;-78
2022/10/06 06:58:54;;;;;;;;;;;;;;;;;;5038543;28;1274;-78
2022/10/06 07:01:22;;;;;;;;;;;;;;;;;;5071342;28;1590;-77
2022/10/06 07:03:52;;;;;;;;;;;;;;;;;;5037584;28;1902;-78
2022/10/06 07:06:20;;;;;;;;;;;;;;;;;;5039078;28;1507;-78
2022/10/06 07:08:47;;;;;;;;;;;;;;;;;;5038386;28;1188;-78
2022/10/06 07:11:13;;;;;;;;;;;;;;;;;;5020890;28;1220;-78
2022/10/06 07:13:41;;;;;;;;;;;;;;;;;;5053224;28;1432;-78
2022/10/06 07:27:02;;;;;;;;;;;;;;;;;;5056424;28;1478;-78
2022/10/06 07:29:28;;;;;;;;;;;;;;;;;;5040320;28;1128;-77
2022/10/06 07:31:54;;;;;;;;;;;;;;;;;;5038768;28;1345;-79
2022/10/06 07:34:21;;;;;;;;;;;;;;;;;;5037684;28;1313;-78
2022/10/06 07:36:52;;;;;;;;;;;;;;;;;;5036731;28;1176;-78
2022/10/06 07:39:19;;;;;;;;;;;;;;;;;;5036899;28;1488;-78
2022/10/06 07:41:46;;;;;;;;;;;;;;;;;;5055077;28;838;-78
2022/10/06 07:44:13;;;;;;;;;;;;;;;;;;5037334;28;1913;-79
2022/10/06 07:46:41;;;;;;;;;;;;;;;;;;5036887;28;1163;-79
2022/10/06 07:49:12;;;;;;;;;;;;;;;;;;5038408;28;1323;-78
2022/10/06 07:51:38;;;;;;;;;;;;;;;;;;5040476;28;1108;-78
2022/10/06 07:54:07;;;;;;;;;;;;;;;;;;5073753;28;1502;-78
2022/10/06 07:56:48;;;;;;;;;;;;;;;;;;5053270;28;1293;-78
2022/10/06 07:59:14;;;;;;;;;;;;;;;;;;5036548;28;1243;-78
2022/10/06 08:01:40;;;;;;;;;;;;;;;;;;5036519;28;1142;-78
2022/10/06 08:04:06;;;;;;;;;;;;;;;;;;5052928;28;1894;-79
2022/10/06 08:06:32;;;;;;;;;;;;;;;;;;5054615;28;764;-78
2022/10/06 08:08:59;;;;;;;;;;;;;;;;;;5054544;28;1138;-78
2022/10/06 08:11:26;;;;;;;;;;;;;;;;;;5042739;28;1187;-78
2022/10/06 08:13:52;;;;;;;;;;;;;;;;;;5053209;28;1337;-77
2022/10/06 08:16:19;;;;;;;;;;;;;;;;;;5066329;22;3563;-71
2022/10/06 08:18:48;;;;;;;;;;;;;;;;;;5051954;28;1132;-72
2022/10/06 08:21:16;;;;;;;;;;;;;;;;;;5051936;28;1150;-70
2022/10/06 08:23:42;;;;;;;;;;;;;;;;;;5051851;28;1930;-71
2022/10/06 08:26:09;;;;;;;;;;;;;;;;;;5050753;28;1325;-71
2022/10/06 08:28:36;;;;;;;;;;;;;;;;;;5051952;28;1067;-72
2022/10/06 08:31:03;;;;;;;;;;;;;;;;;;5051476;28;865;-71
2022/10/06 08:33:30;;;;;;;;;;;;;;;;;;5051438;28;1171;-71
2022/10/06 08:36:01;;;;;;;;;;;;;;;;;;5050961;28;1391;-71
2022/10/06 08:38:27;;;;;;;;;;;;;;;;;;5051971;28;604;-72
2022/10/06 08:40:53;;;;;;;;;;;;;;;;;;5051680;28;965;-71
2022/10/06 08:43:19;;;;;;;;;;;;;;;;;;5051307;28;1981;-72
2022/10/06 08:45:47;;;;;;;;;;;;;;;;;;5056673;28;1416;-72
2022/10/06 08:48:14;;;;;;;;;;;;;;;;;;5071691;28;1118;-72
2022/10/06 08:50:50;;;;;;;;;;;;;;;;;;5071537;28;961;-72
2022/10/06 08:53:17;;;;;;;;;;;;;;;;;;5071258;28;1087;-72
2022/10/06 08:55:46;;;;;;;;;;;;;;;;;;5060638;28;1404;-73
2022/10/06 08:58:27;;;;;;;;;;;;;;;;;;5051436;28;1131;-72
2022/10/06 09:00:55;;;;;;;;;;;;;;;;;;5038581;28;1180;-72
2022/10/06 09:03:23;;;;;;;;;;;;;;;;;;5061199;28;1979;-72
2022/10/06 09:05:50;;;;;;;;;;;;;;;;;;5059991;28;1452;-71
2022/10/06 09:08:20;;;;;;;;;;;;;;;;;;5060068;28;1392;-72
2022/10/06 09:10:48;;;;;;;;;;;;;;;;;;5057338;28;1407;-71
2022/10/06 09:13:17;;;;;;;;;;;;;;;;;;5042441;28;1319;-71
2022/10/06 09:15:45;;;;;;;;;;;;;;;;;;5061147;28;1442;-72
2022/10/06 09:18:15;;;;;;;;;;;;;;;;;;5054086;28;1361;-72
2022/10/06 09:20:42;;;;;;;;;;;;;;;;;;5051320;28;1064;-73
2022/10/06 09:23:10;;;;;;;;;;;;;;;;;;5050718;28;806;-72
2022/10/06 09:25:36;;;;;;;;;;;;;;;;;;5032745;28;1972;-72
2022/10/06 09:28:02;;;;;;;;;;;;;;;;;;5050925;28;1063;-73
2022/10/06 09:30:29;;;;;;;;;;;;;;;;;;5035013;28;1037;-71
2022/10/06 09:32:58;;;;;;;;;;;;;;;;;;5051542;28;1148;-72
2022/10/06 09:35:27;;;;;;;;;;;;;;;;;;5050580;28;1278;-72
2022/10/06 09:37:55;;;;;;;;;;;;;;;;;;5050951;28;1079;-73
2022/10/06 09:40:28;;;;;;;;;;;;;;;;;;5049958;28;815;-72
2022/10/06 09:42:54;;;;;;;;;;;;;;;;;;5049184;28;1490;-71
2022/10/06 09:45:22;;;;;;;;;;;;;;;;;;5049807;28;1922;-72
2022/10/06 09:47:49;;;;;;;;;;;;;;;;;;5050765;28;961;-72
2022/10/06 09:50:20;;;;;;;;;;;;;;;;;;5050100;28;1099;-72
2022/10/06 09:53:09;;;;;;;;;;;;;;;;;;5049198;28;1099;-72
2022/10/06 09:55:40;;;;;;;;;;;;;;;;;;5049926;28;1391;-72
2022/10/06 09:58:14;;;;;;;;;;;;;;;;;;5050108;28;1072;-71
2022/10/06 10:00:42;;;;;;;;;;;;;;;;;;5050342;28;1080;-72
2022/10/06 10:03:10;;;;;;;;;;;;;;;;;;5048927;28;1064;-72
2022/10/06 10:05:37;;;;;;;;;;;;;;;;;;5046904;28;2021;-72
2022/10/06 10:08:05;;;;;;;;;;;;;;;;;;5047330;28;1408;-72
2022/10/06 10:10:34;;;;;;;;;;;;;;;;;;5044282;28;1578;-71
2022/10/06 10:13:00;;;;;;;;;;;;;;;;;;5047203;28;1539;-70
2022/10/06 10:15:29;;;;;;;;;;;;;;;;;;5029752;28;1452;-72
2022/10/06 10:17:55;;;;;;;;;;;;;;;;;;5052722;28;1195;-73
2022/10/06 10:20:23;;;;;;;;;;;;;;;;;;5047359;28;1393;-72
2022/10/06 10:22:49;;;;;;;;;;;;;;;;;;5047238;28;1134;-73
2022/10/06 10:25:19;;;;;;;;;;;;;;;;;;5047535;28;2000;-73
2022/10/06 10:27:50;;;;;;;;;;;;;;;;;;5048493;28;1285;-73
2022/10/06 10:30:16;;;;;;;;;;;;;;;;;;5029238;28;1378;-70
2022/10/06 10:32:49;;;;;;;;;;;;;;;;;;5047199;28;1495;-72
2022/10/06 10:35:19;;;;;;;;;;;;;;;;;;5047370;28;1290;-73
2022/10/06 10:37:46;;;;;;;;;;;;;;;;;;5054086;28;1183;-72
2022/10/06 10:40:16;;;;;;;;;;;;;;;;;;5040238;28;1431;-72
2022/10/06 10:42:44;;;;;;;;;;;;;;;;;;5041656;28;1433;-72
2022/10/06 10:45:14;;;;;;;;;;;;;;;;;;5047963;28;1918;-73
2022/10/06 10:47:41;;;;;;;;;;;;;;;;;;5050156;28;1124;-73
2022/10/06 10:50:08;;;;;;;;;;;;;;;;;;5051844;28;1060;-73
2022/10/06 10:52:36;;;;;;;;;;;;;;;;;;5035407;28;1724;-72
2022/10/06 10:55:06;;;;;;;;;;;;;;;;;;5051688;28;1547;-72
2022/10/06 10:57:34;;;;;;;;;;;;;;;;;;5053198;28;1142;-72
2022/10/06 11:00:02;;;;;;;;;;;;;;;;;;5034439;28;1040;-72
2022/10/06 11:02:30;;;;;;;;;;;;;;;;;;5053154;28;1067;-72
2022/10/06 11:04:58;;;;;;;;;;;;;;;;;;5052338;28;1997;-72
2022/10/06 11:07:25;;;;;;;;;;;;;;;;;;5029250;28;1398;-72
2022/10/06 11:09:53;;;;;;;;;;;;;;;;;;5049244;28;1240;-73
2022/10/06 11:12:23;;;;;;;;;;;;;;;;;;5053016;28;779;-72
2022/10/06 11:14:50;;;;;;;;;;;;;;;;;;5052278;28;1313;-73
2022/10/06 11:17:18;;;;;;;;;;;;;;;;;;5035390;28;1136;-72
2022/10/06 11:19:47;;;;;;;;;;;;;;;;;;5052233;28;1413;-72
2022/10/06 11:22:14;;;;;;;;;;;;;;;;;;5034523;28;1351;-73
2022/10/06 11:24:42;;;;;;;;;;;;;;;;;;5034731;28;1980;-72
2022/10/06 11:27:11;;;;;;;;;;;;;;;;;;5034387;28;1548;-72
2022/10/06 11:29:39;;;;;;;;;;;;;;;;;;5052878;28;1174;-71
2022/10/06 11:32:08;;;;;;;;;;;;;;;;;;5051346;28;1532;-72
2022/10/06 11:34:34;;;;;;;;;;;;;;;;;;5034381;28;1328;-71
2022/10/06 11:37:02;;;;;;;;;;;;;;;;;;5052977;28;1059;-72
2022/10/06 11:39:30;;;;;;;;;;;;;;;;;;5043992;28;1408;-72
2022/10/06 11:41:58;;;;;;;;;;;;;;;;;;5051844;28;1417;-71
2022/10/06 11:44:26;;;;;;;;;;;;;;;;;;5044675;28;1977;-73
2022/10/06 11:46:53;;;;;;;;;;;;;;;;;;5044024;28;1393;-72
2022/10/06 11:49:38;;;;;;;;;;;;;;;;;;5051193;28;1404;-73
2022/10/06 11:52:23;;;;;;;;;;;;;;;;;;5049640;28;1499;-72
2022/10/06 11:54:51;;;;;;;;;;;;;;;;;;5047071;28;1459;-73
2022/10/06 11:57:30;;;;;;;;;;;;;;;;;;5052638;28;1210;-73
2022/10/06 12:00:17;;;;;;;;;;;;;;;;;;5052193;28;1051;-74
2022/10/06 12:02:43;;;;;;;;;;;;;;;;;;5051561;28;1416;-74
2022/10/06 12:05:22;;;;;;;;;;;;;;;;;;5041492;28;1981;-74
2022/10/06 12:08:07;;;;;;;;;;;;;;;;;;5045990;28;1568;-73
2022/10/06 12:10:35;;;;;;;;;;;;;;;;;;5048335;28;1421;-73
2022/10/06 12:13:08;;;;;;;;;;;;;;;;;;5032663;28;1398;-73
2022/10/06 12:15:39;;;;;;;;;;;;;;;;;;5050423;28;1490;-73
2022/10/06 12:18:08;;;;;;;;;;;;;;;;;;5050637;28;1388;-73
2022/10/06 12:20:37;;;;;;;;;;;;;;;;;;5042431;28;1405;-73
2022/10/06 12:23:04;;;;;;;;;;;;;;;;;;5058061;28;1365;-73
2022/10/06 12:25:31;;;;;;;;;;;;;;;;;;5050641;28;1914;-73
2022/10/06 12:28:02;;;;;;;;;;;;;;;;;;5035046;28;1578;-72
2022/10/06 12:30:30;;;;;;;;;;;;;;;;;;5033850;28;1178;-72
2022/10/06 12:32:56;;;;;;;;;;;;;;;;;;5040378;28;1546;-72
2022/10/06 12:35:30;;;;;;;;;;;;;;;;;;5051411;28;1491;-73
2022/10/06 12:37:59;;;;;;;;;;;;;;;;;;5051813;28;1382;-71
2022/10/06 12:40:42;;;;;;;;;;;;;;;;;;5048690;28;1402;-71
2022/10/06 12:43:27;;;;;;;;;;;;;;;;;;5046292;28;1360;-70
2022/10/06 12:45:56;;;;;;;;;;;;;;;;;;5047401;28;1904;-72
2022/10/06 12:48:24;;;;;;;;;;;;;;;;;;5029692;28;1375;-73
2022/10/06 12:50:51;;;;;;;;;;;;;;;;;;5071708;28;1119;-73
2022/10/06 12:53:18;;;;;;;;;;;;;;;;;;5057431;28;1435;-73
2022/10/06 12:55:47;;;;;;;;;;;;;;;;;;5053408;28;1440;-72
2022/10/06 12:58:16;;;;;;;;;;;;;;;;;;5034211;28;1578;-72
2022/10/06 13:00:42;;;;;;;;;;;;;;;;;;5046545;28;1713;-73
2022/10/06 13:03:15;;;;;;;;;;;;;;;;;;5040058;28;1529;-70
2022/10/06 13:05:41;;;;;;;;;;;;;;;;;;5046305;28;1996;-72
2022/10/06 13:08:20;;;;;;;;;;;;;;;;;;5033028;28;1432;-73
2022/10/06 13:10:46;;;;;;;;;;;;;;;;;;5030938;28;1683;-71
2022/10/06 13:13:19;;;;;;;;;;;;;;;;;;5031816;28;1694;-72
2022/10/06 13:15:45;;;;;;;;;;;;;;;;;;5050479;28;1411;-73
2022/10/06 13:18:12;;;;;;;;;;;;;;;;;;5044630;28;1409;-74
2022/10/06 13:20:40;;;;;;;;;;;;;;;;;;5029705;28;1482;-73
2022/10/06 13:23:16;;;;;;;;;;;;;;;;;;5040447;28;1369;-73
2022/10/06 13:25:42;;;;;;;;;;;;;;;;;;5028209;28;1981;-73
2022/10/06 13:28:30;;;;;;;;;;;;;;;;;;5030072;28;1436;-73
2022/10/06 13:30:57;;;;;;;;;;;;;;;;;;5025735;28;1085;-73
2022/10/06 13:33:23;;;;;;;;;;;;;;;;;;5048706;28;1092;-73
2022/10/06 13:35:52;;;;;;;;;;;;;;;;;;5048528;28;1298;-73
2022/10/06 13:38:18;;;;;;;;;;;;;;;;;;5047053;28;1459;-74
2022/10/06 13:40:44;;;;;;;;;;;;;;;;;;5030427;28;1365;-73
2022/10/06 13:43:13;;;;;;;;;;;;;;;;;;5047871;28;1112;-73
2022/10/06 13:45:40;;;;;;;;;;;;;;;;;;5033418;28;1910;-73
2022/10/06 13:48:08;;;;;;;;;;;;;;;;;;5044101;28;1417;-73
2022/10/06 13:50:34;;;;;;;;;;;;;;;;;;5042549;28;1175;-74
2022/10/06 13:53:02;;;;;;;;;;;;;;;;;;5046720;28;1452;-72
2022/10/06 13:55:30;;;;;;;;;;;;;;;;;;5047972;28;1505;-73
2022/10/06 13:58:06;;;;;;;;;;;;;;;;;;5048032;28;1084;-72
2022/10/06 14:00:32;;;;;;;;;;;;;;;;;;5047637;28;1451;-72
2022/10/06 14:03:07;;;;;;;;;;;;;;;;;;5028306;28;1864;-71
2022/10/06 14:05:35;;;;;;;;;;;;;;;;;;5041194;28;1910;-72
2022/10/06 14:08:03;;;;;;;;;;;;;;;;;;5047588;28;1087;-72
2022/10/06 14:10:31;;;;;;;;;;;;;;;;;;5047703;28;1119;-73
2022/10/06 14:12:57;;;;;;;;;;;;;;;;;;5047018;28;1404;-74
2022/10/06 14:15:24;;;;;;;;;;;;;;;;;;5028221;28;1442;-73
2022/10/06 14:17:55;;;;;;;;;;;;;;;;;;5045724;28;1115;-73
2022/10/06 14:20:36;;;;;;;;;;;;;;;;;;5038538;28;1539;-72
2022/10/06 14:23:03;;;;;;;;;;;;;;;;;;5047595;28;1103;-72
2022/10/06 14:25:29;;;;;;;;;;;;;;;;;;5025678;28;1942;-73
2022/10/06 14:27:56;;;;;;;;;;;;;;;;;;5038263;28;1432;-72
2022/10/06 14:30:22;;;;;;;;;;;;;;;;;;5043145;28;1119;-74
2022/10/06 14:32:48;;;;;;;;;;;;;;;;;;5033095;28;1295;-73
2022/10/06 14:35:14;;;;;;;;;;;;;;;;;;5049530;28;1444;-73
2022/10/06 14:37:40;;;;;;;;;;;;;;;;;;5048609;28;1413;-73
2022/10/06 14:40:09;;;;;;;;;;;;;;;;;;5031384;28;1567;-73
2022/10/06 14:42:35;;;;;;;;;;;;;;;;;;5046355;28;1567;-72
2022/10/06 14:45:02;;;;;;;;;;;;;;;;;;5032453;28;1919;-73
2022/10/06 14:47:30;;;;;;;;;;;;;;;;;;5032939;28;1628;-73
2022/10/06 14:49:56;;;;;;;;;;;;;;;;;;5049053;28;1445;-72
2022/10/06 14:52:22;;;;;;;;;;;;;;;;;;5024217;28;1405;-73
2022/10/06 14:54:49;;;;;;;;;;;;;;;;;;5028217;28;1325;-73
2022/10/06 14:57:17;;;;;;;;;;;;;;;;;;5046305;28;1452;-75
2022/10/06 14:59:43;;;;;;;;;;;;;;;;;;5053061;23;3777;-77
2022/10/06 15:02:09;;;;;;;;;;;;;;;;;;5041567;28;1229;-77
2022/10/06 15:04:35;;;;;;;;;;;;;;;;;;5052145;28;865;-77
2022/10/06 15:09:46;;;;;;;;;;;;;;;;;;5034688;28;1368;-77
2022/10/06 15:12:12;;;;;;;;;;;;;;;;;;5034264;28;1116;-77
2022/10/06 15:14:40;;;;;;;;;;;;;;;;;;5053255;28;1103;-77
2022/10/06 15:17:06;;;;;;;;;;;;;;;;;;5037723;28;1343;-79
2022/10/06 15:19:33;;;;;;;;;;;;;;;;;;5054569;28;1308;-80
2022/10/06 15:22:00;;;;;;;;;;;;;;;;;;5055492;28;1076;-79
2022/10/06 15:24:26;;;;;;;;;;;;;;;;;;5051950;28;1160;-78
2022/10/06 15:29:36;;;;;;;;;;;;;;;;;;5052262;28;1424;-78
2022/10/06 15:32:04;;;;;;;;;;;;;;;;;;5050715;28;1123;-77
2022/10/06 15:34:32;;;;;;;;;;;;;;;;;;5015122;28;838;-78
2022/10/06 15:36:58;;;;;;;;;;;;;;;;;;5033166;28;1127;-77
2022/10/06 15:39:25;;;;;;;;;;;;;;;;;;5033580;28;1431;-78
2022/10/06 15:41:52;;;;;;;;;;;;;;;;;;5030820;28;1505;-79
2022/10/06 15:44:19;;;;;;;;;;;;;;;;;;5036796;28;1490;-79
2022/10/06 15:46:47;;;;;;;;;;;;;;;;;;5041764;28;1914;-78
2022/10/06 15:49:15;;;;;;;;;;;;;;;;;;5036754;28;1368;-78
2022/10/06 15:51:43;;;;;;;;;;;;;;;;;;5049714;28;1404;-80
2022/10/06 15:54:10;;;;;;;;;;;;;;;;;;5039972;28;1486;-78
2022/10/06 15:56:36;;;;;;;;;;;;;;;;;;5030974;28;1101;-78
2022/10/06 15:59:03;;;;;;;;;;;;;;;;;;5030612;28;1436;-76
2022/10/06 16:01:34;;;;;;;;;;;;;;;;;;5030253;28;1281;-77
2022/10/06 16:04:07;;;;;;;;;;;;;;;;;;5022489;28;1611;-77
2022/10/06 16:06:42;;;;;;;;;;;;;;;;;;5013907;28;1918;-77
2022/10/06 16:09:09;;;;;;;;;;;;;;;;;;5012694;28;1289;-77
2022/10/06 16:11:35;;;;;;;;;;;;;;;;;;5008620;28;1384;-77
2022/10/06 16:14:01;;;;;;;;;;;;;;;;;;5019724;28;1551;-77
2022/10/06 16:16:27;;;;;;;;;;;;;;;;;;5025985;28;1232;-76
2022/10/06 16:18:54;;;;;;;;;;;;;;;;;;5050949;28;1119;-77
2022/10/06 16:21:20;;;;;;;;;;;;;;;;;;5030653;28;1436;-77
2022/10/06 16:23:50;;;;;;;;;;;;;;;;;;5041557;28;1527;-79
2022/10/06 16:26:16;;;;;;;;;;;;;;;;;;5053615;28;1895;-79
2022/10/06 16:28:42;;;;;;;;;;;;;;;;;;5054680;28;1072;-80
2022/10/06 16:31:08;;;;;;;;;;;;;;;;;;5052410;28;1419;-80
2022/10/06 16:33:35;;;;;;;;;;;;;;;;;;5036640;28;1400;-79
2022/10/06 16:36:01;;;;;;;;;;;;;;;;;;5035014;28;1515;-77
2022/10/06 16:38:27;;;;;;;;;;;;;;;;;;5037763;28;1472;-78
2022/10/06 16:40:56;;;;;;;;;;;;;;;;;;5015584;28;1492;-77
2022/10/06 16:43:22;;;;;;;;;;;;;;;;;;5034841;28;1100;-78
2022/10/06 16:45:54;;;;;;;;;;;;;;;;;;5050577;28;1914;-78
2022/10/06 16:48:20;;;;;;;;;;;;;;;;;;5037243;28;1328;-77
2022/10/06 16:50:47;;;;;;;;;;;;;;;;;;5012492;28;1524;-78
2022/10/06 16:53:13;;;;;;;;;;;;;;;;;;5038671;28;1135;-78
2022/10/06 16:55:41;;;;;;;;;;;;;;;;;;5030103;28;1123;-78
2022/10/06 16:58:09;;;;;;;;;;;;;;;;;;5012517;28;1307;-78
2022/10/06 17:00:35;;;;;;;;;;;;;;;;;;5011160;28;1529;-79
2022/10/06 17:03:01;;;;;;;;;;;;;;;;;;5033878;28;1406;-77
2022/10/06 17:05:28;;;;;;;;;;;;;;;;;;5036995;28;1468;-78
2022/10/06 17:07:54;;;;;;;;;;;;;;;;;;5019601;28;1910;-79
2022/10/06 17:10:20;;;;;;;;;;;;;;;;;;5049057;28;1390;-79
2022/10/06 17:12:47;;;;;;;;;;;;;;;;;;5043857;28;1452;-77
2022/10/06 17:15:14;;;;;;;;;;;;;;;;;;5038953;28;1269;-78
2022/10/06 17:17:40;;;;;;;;;;;;;;;;;;5049156;28;1114;-78
2022/10/06 17:20:07;;;;;;;;;;;;;;;;;;5052347;28;1337;-79
2022/10/06 17:22:33;;;;;;;;;;;;;;;;;;5052611;28;1060;-79
2022/10/06 17:24:59;;;;;;;;;;;;;;;;;;5052290;28;810;-80
2022/10/06 17:27:27;;;;;;;;;;;;;;;;;;5039680;28;1942;-79